sensor_id;sensor_type;location;lat;lon;timestamp;P1;durP1;ratioP1;P2;durP2;ratioP2
56581;SDS011;42463;52.214;21.238;2023-02-28T00:01:55;86.50;;;38.60;;
56581;SDS011;42463;52.214;21.238;2023-02-28T00:04:20;85.10;;;39.50;;
56581;SDS011;42463;52.214;21.238;2023-02-28T00:06:44;82.10;;;39.30;;
56581;SDS011;42463;52.214;21.238;2023-02-28T00:09:09;87.80;;;39.40;;
56581;SDS011;42463;52.214;21.238;2023-02-28T00:11:33;86.20;;;38.30;;
56581;SDS011;42463;52.214;21.238;2023-02-28T00:13:59;84.40;;;40.60;;
56581;SDS011;42463;52.214;21.238;2023-02-28T00:16:24;89.20;;;40.60;;
56581;SDS011;42463;52.214;21.238;2023-02-28T00:18:49;88.50;;;39.90;;
56581;SDS011;42463;52.214;21.238;2023-02-28T00:21:14;92.80;;;40.40;;
56581;SDS011;42463;52.214;21.238;2023-02-28T00:23:40;85.50;;;37.90;;
56581;SDS011;42463;52.214;21.238;2023-02-28T00:26:05;82.80;;;38.40;;
56581;SDS011;42463;52.214;21.238;2023-02-28T00:28:30;80.90;;;36.90;;
56581;SDS011;42463;52.214;21.238;2023-02-28T00:30:55;94.30;;;40.00;;
56581;SDS011;42463;52.214;21.238;2023-02-28T00:33:21;87.40;;;39.20;;
56581;SDS011;42463;52.214;21.238;2023-02-28T00:35:46;83.20;;;39.20;;
56581;SDS011;42463;52.214;21.238;2023-02-28T00:38:10;82.80;;;39.50;;
56581;SDS011;42463;52.214;21.238;2023-02-28T00:40:35;93.60;;;41.80;;
56581;SDS011;42463;52.214;21.238;2023-02-28T00:42:59;101.20;;;45.20;;
56581;SDS011;42463;52.214;21.238;2023-02-28T00:45:24;92.60;;;43.10;;
56581;SDS011;42463;52.214;21.238;2023-02-28T00:47:49;92.70;;;44.10;;
56581;SDS011;42463;52.214;21.238;2023-02-28T00:50:14;93.60;;;43.60;;
56581;SDS011;42463;52.214;21.238;2023-02-28T00:52:39;88.60;;;42.80;;
56581;SDS011;42463;52.214;21.238;2023-02-28T00:55:04;98.00;;;43.50;;
56581;SDS011;42463;52.214;21.238;2023-02-28T00:57:29;87.00;;;40.10;;
56581;SDS011;42463;52.214;21.238;2023-02-28T00:59:53;98.00;;;41.40;;
56581;SDS011;42463;52.214;21.238;2023-02-28T01:02:18;86.00;;;39.60;;
56581;SDS011;42463;52.214;21.238;2023-02-28T01:04:43;99.10;;;40.30;;
56581;SDS011;42463;52.214;21.238;2023-02-28T01:07:08;83.80;;;39.50;;
56581;SDS011;42463;52.214;21.238;2023-02-28T01:09:33;83.50;;;39.20;;
56581;SDS011;42463;52.214;21.238;2023-02-28T01:11:58;78.70;;;36.80;;
56581;SDS011;42463;52.214;21.238;2023-02-28T01:14:22;79.50;;;37.40;;
56581;SDS011;42463;52.214;21.238;2023-02-28T01:16:47;82.80;;;37.50;;
56581;SDS011;42463;52.214;21.238;2023-02-28T01:19:13;85.30;;;39.00;;
56581;SDS011;42463;52.214;21.238;2023-02-28T01:21:38;85.10;;;37.20;;
56581;SDS011;42463;52.214;21.238;2023-02-28T01:24:04;78.90;;;38.00;;
56581;SDS011;42463;52.214;21.238;2023-02-28T01:26:31;82.90;;;38.40;;
56581;SDS011;42463;52.214;21.238;2023-02-28T01:28:56;88.50;;;38.70;;
56581;SDS011;42463;52.214;21.238;2023-02-28T01:31:21;87.40;;;38.70;;
56581;SDS011;42463;52.214;21.238;2023-02-28T01:33:46;83.00;;;37.10;;
56581;SDS011;42463;52.214;21.238;2023-02-28T01:36:12;87.50;;;37.30;;
56581;SDS011;42463;52.214;21.238;2023-02-28T01:38:38;76.10;;;36.90;;
56581;SDS011;42463;52.214;21.238;2023-02-28T01:41:03;83.30;;;36.90;;
56581;SDS011;42463;52.214;21.238;2023-02-28T01:43:30;83.70;;;35.70;;
56581;SDS011;42463;52.214;21.238;2023-02-28T01:46:15;82.60;;;39.40;;
56581;SDS011;42463;52.214;21.238;2023-02-28T01:48:40;80.00;;;38.10;;
56581;SDS011;42463;52.214;21.238;2023-02-28T01:51:10;81.50;;;37.80;;
56581;SDS011;42463;52.214;21.238;2023-02-28T01:56:35;82.20;;;37.10;;
56581;SDS011;42463;52.214;21.238;2023-02-28T01:59:00;87.20;;;37.50;;
56581;SDS011;42463;52.214;21.238;2023-02-28T02:04:10;86.20;;;38.60;;
56581;SDS011;42463;52.214;21.238;2023-02-28T02:06:38;88.50;;;38.90;;
56581;SDS011;42463;52.214;21.238;2023-02-28T02:09:06;89.00;;;39.00;;
56581;SDS011;42463;52.214;21.238;2023-02-28T02:11:30;86.20;;;38.10;;
56581;SDS011;42463;52.214;21.238;2023-02-28T02:14:16;96.40;;;39.60;;
56581;SDS011;42463;52.214;21.238;2023-02-28T02:16:59;89.10;;;39.40;;
56581;SDS011;42463;52.214;21.238;2023-02-28T02:19:42;92.30;;;39.70;;
56581;SDS011;42463;52.214;21.238;2023-02-28T02:22:27;86.40;;;39.40;;
56581;SDS011;42463;52.214;21.238;2023-02-28T02:27:54;90.40;;;40.20;;
56581;SDS011;42463;52.214;21.238;2023-02-28T02:30:39;91.80;;;40.20;;
56581;SDS011;42463;52.214;21.238;2023-02-28T02:33:25;90.10;;;40.00;;
56581;SDS011;42463;52.214;21.238;2023-02-28T02:36:06;84.10;;;39.70;;
56581;SDS011;42463;52.214;21.238;2023-02-28T02:38:39;91.60;;;39.30;;
56581;SDS011;42463;52.214;21.238;2023-02-28T02:41:12;96.50;;;40.80;;
56581;SDS011;42463;52.214;21.238;2023-02-28T02:43:40;95.00;;;43.30;;
56581;SDS011;42463;52.214;21.238;2023-02-28T02:46:12;86.90;;;39.20;;
56581;SDS011;42463;52.214;21.238;2023-02-28T02:48:42;84.90;;;39.70;;
56581;SDS011;42463;52.214;21.238;2023-02-28T02:51:10;91.70;;;38.90;;
56581;SDS011;42463;52.214;21.238;2023-02-28T02:53:38;92.00;;;39.40;;
56581;SDS011;42463;52.214;21.238;2023-02-28T02:56:11;87.50;;;40.70;;
56581;SDS011;42463;52.214;21.238;2023-02-28T02:58:38;89.90;;;38.50;;
56581;SDS011;42463;52.214;21.238;2023-02-28T03:01:06;87.40;;;38.90;;
56581;SDS011;42463;52.214;21.238;2023-02-28T03:03:33;87.60;;;38.70;;
56581;SDS011;42463;52.214;21.238;2023-02-28T03:05:59;86.80;;;37.80;;
56581;SDS011;42463;52.214;21.238;2023-02-28T03:08:25;88.60;;;38.90;;
56581;SDS011;42463;52.214;21.238;2023-02-28T03:10:52;88.60;;;39.80;;
56581;SDS011;42463;52.214;21.238;2023-02-28T03:13:27;90.90;;;41.70;;
56581;SDS011;42463;52.214;21.238;2023-02-28T03:16:21;99.40;;;41.20;;
56581;SDS011;42463;52.214;21.238;2023-02-28T03:21:29;101.00;;;42.60;;
56581;SDS011;42463;52.214;21.238;2023-02-28T03:24:01;101.70;;;41.80;;
56581;SDS011;42463;52.214;21.238;2023-02-28T03:26:30;100.30;;;41.50;;
56581;SDS011;42463;52.214;21.238;2023-02-28T03:29:00;92.00;;;41.50;;
56581;SDS011;42463;52.214;21.238;2023-02-28T03:31:29;98.30;;;42.60;;
56581;SDS011;42463;52.214;21.238;2023-02-28T03:33:59;98.30;;;43.40;;
56581;SDS011;42463;52.214;21.238;2023-02-28T03:36:29;97.40;;;43.20;;
56581;SDS011;42463;52.214;21.238;2023-02-28T03:38:59;98.10;;;43.90;;
56581;SDS011;42463;52.214;21.238;2023-02-28T03:41:27;103.90;;;45.00;;
56581;SDS011;42463;52.214;21.238;2023-02-28T03:43:59;100.50;;;43.80;;
56581;SDS011;42463;52.214;21.238;2023-02-28T03:46:31;91.00;;;41.80;;
56581;SDS011;42463;52.214;21.238;2023-02-28T03:49:00;94.20;;;42.50;;
56581;SDS011;42463;52.214;21.238;2023-02-28T03:51:29;95.80;;;42.30;;
56581;SDS011;42463;52.214;21.238;2023-02-28T03:53:58;104.60;;;44.60;;
56581;SDS011;42463;52.214;21.238;2023-02-28T03:56:29;98.00;;;42.70;;
56581;SDS011;42463;52.214;21.238;2023-02-28T03:58:58;106.70;;;43.90;;
56581;SDS011;42463;52.214;21.238;2023-02-28T04:01:30;92.70;;;41.80;;
56581;SDS011;42463;52.214;21.238;2023-02-28T04:03:58;94.50;;;41.80;;
56581;SDS011;42463;52.214;21.238;2023-02-28T04:06:24;91.90;;;43.30;;
56581;SDS011;42463;52.214;21.238;2023-02-28T04:08:49;98.60;;;42.20;;
56581;SDS011;42463;52.214;21.238;2023-02-28T04:11:18;101.40;;;44.40;;
56581;SDS011;42463;52.214;21.238;2023-02-28T04:13:46;94.90;;;42.70;;
56581;SDS011;42463;52.214;21.238;2023-02-28T04:16:12;97.50;;;42.40;;
56581;SDS011;42463;52.214;21.238;2023-02-28T04:18:38;89.90;;;39.60;;
56581;SDS011;42463;52.214;21.238;2023-02-28T04:21:05;95.70;;;39.10;;
56581;SDS011;42463;52.214;21.238;2023-02-28T04:23:31;91.70;;;39.90;;
56581;SDS011;42463;52.214;21.238;2023-02-28T04:25:56;96.10;;;40.20;;
56581;SDS011;42463;52.214;21.238;2023-02-28T04:28:21;83.90;;;38.20;;
56581;SDS011;42463;52.214;21.238;2023-02-28T04:30:45;89.10;;;39.00;;
56581;SDS011;42463;52.214;21.238;2023-02-28T04:33:10;93.20;;;39.70;;
56581;SDS011;42463;52.214;21.238;2023-02-28T04:35:35;92.40;;;37.80;;
56581;SDS011;42463;52.214;21.238;2023-02-28T04:37:59;83.40;;;38.90;;
56581;SDS011;42463;52.214;21.238;2023-02-28T04:40:24;78.80;;;37.40;;
56581;SDS011;42463;52.214;21.238;2023-02-28T04:42:48;90.20;;;37.50;;
56581;SDS011;42463;52.214;21.238;2023-02-28T04:45:13;85.50;;;38.80;;
56581;SDS011;42463;52.214;21.238;2023-02-28T04:47:39;83.30;;;36.50;;
56581;SDS011;42463;52.214;21.238;2023-02-28T04:50:04;85.30;;;36.60;;
56581;SDS011;42463;52.214;21.238;2023-02-28T04:52:30;83.20;;;36.50;;
56581;SDS011;42463;52.214;21.238;2023-02-28T04:54:55;91.90;;;38.20;;
56581;SDS011;42463;52.214;21.238;2023-02-28T04:57:19;83.50;;;37.60;;
56581;SDS011;42463;52.214;21.238;2023-02-28T04:59:44;79.50;;;36.50;;
56581;SDS011;42463;52.214;21.238;2023-02-28T05:02:09;79.20;;;34.00;;
56581;SDS011;42463;52.214;21.238;2023-02-28T05:04:34;81.90;;;36.10;;
56581;SDS011;42463;52.214;21.238;2023-02-28T05:06:59;77.80;;;34.50;;
56581;SDS011;42463;52.214;21.238;2023-02-28T05:09:24;78.40;;;36.10;;
56581;SDS011;42463;52.214;21.238;2023-02-28T05:11:49;76.70;;;35.90;;
56581;SDS011;42463;52.214;21.238;2023-02-28T05:14:14;77.10;;;34.20;;
56581;SDS011;42463;52.214;21.238;2023-02-28T05:16:38;78.50;;;33.20;;
56581;SDS011;42463;52.214;21.238;2023-02-28T05:19:03;72.90;;;34.90;;
56581;SDS011;42463;52.214;21.238;2023-02-28T05:21:28;72.10;;;33.00;;
56581;SDS011;42463;52.214;21.238;2023-02-28T05:23:54;80.40;;;34.60;;
56581;SDS011;42463;52.214;21.238;2023-02-28T05:26:19;71.10;;;33.30;;
56581;SDS011;42463;52.214;21.238;2023-02-28T05:28:44;74.80;;;34.50;;
56581;SDS011;42463;52.214;21.238;2023-02-28T05:31:08;79.70;;;34.20;;
56581;SDS011;42463;52.214;21.238;2023-02-28T05:33:34;74.70;;;32.50;;
56581;SDS011;42463;52.214;21.238;2023-02-28T05:35:58;77.10;;;34.00;;
56581;SDS011;42463;52.214;21.238;2023-02-28T05:38:23;75.20;;;33.40;;
56581;SDS011;42463;52.214;21.238;2023-02-28T05:40:48;77.10;;;32.70;;
56581;SDS011;42463;52.214;21.238;2023-02-28T05:43:13;73.40;;;34.90;;
56581;SDS011;42463;52.214;21.238;2023-02-28T05:45:37;83.30;;;35.10;;
56581;SDS011;42463;52.214;21.238;2023-02-28T05:48:02;81.90;;;35.90;;
56581;SDS011;42463;52.214;21.238;2023-02-28T05:50:27;93.60;;;39.30;;
56581;SDS011;42463;52.214;21.238;2023-02-28T05:52:52;85.00;;;36.90;;
56581;SDS011;42463;52.214;21.238;2023-02-28T05:55:16;90.00;;;40.50;;
56581;SDS011;42463;52.214;21.238;2023-02-28T05:57:42;109.40;;;44.40;;
56581;SDS011;42463;52.214;21.238;2023-02-28T06:00:10;107.60;;;43.70;;
56581;SDS011;42463;52.214;21.238;2023-02-28T06:02:37;102.60;;;43.30;;
56581;SDS011;42463;52.214;21.238;2023-02-28T06:05:02;110.00;;;46.60;;
56581;SDS011;42463;52.214;21.238;2023-02-28T06:07:28;112.00;;;45.50;;
56581;SDS011;42463;52.214;21.238;2023-02-28T06:09:55;111.00;;;46.00;;
56581;SDS011;42463;52.214;21.238;2023-02-28T06:12:31;123.90;;;49.20;;
56581;SDS011;42463;52.214;21.238;2023-02-28T06:14:56;154.30;;;58.20;;
56581;SDS011;42463;52.214;21.238;2023-02-28T06:17:21;150.40;;;60.00;;
56581;SDS011;42463;52.214;21.238;2023-02-28T06:19:46;153.00;;;61.50;;
56581;SDS011;42463;52.214;21.238;2023-02-28T06:22:11;142.10;;;58.00;;
56581;SDS011;42463;52.214;21.238;2023-02-28T06:24:35;147.90;;;60.30;;
56581;SDS011;42463;52.214;21.238;2023-02-28T06:27:01;158.70;;;61.00;;
56581;SDS011;42463;52.214;21.238;2023-02-28T06:29:26;161.90;;;62.70;;
56581;SDS011;42463;52.214;21.238;2023-02-28T06:31:51;140.10;;;56.70;;
56581;SDS011;42463;52.214;21.238;2023-02-28T06:34:16;157.90;;;61.30;;
56581;SDS011;42463;52.214;21.238;2023-02-28T06:36:41;146.80;;;58.40;;
56581;SDS011;42463;52.214;21.238;2023-02-28T06:39:05;143.70;;;56.40;;
56581;SDS011;42463;52.214;21.238;2023-02-28T06:41:30;133.50;;;54.20;;
56581;SDS011;42463;52.214;21.238;2023-02-28T06:44:00;140.30;;;52.20;;
56581;SDS011;42463;52.214;21.238;2023-02-28T06:46:25;128.80;;;53.30;;
56581;SDS011;42463;52.214;21.238;2023-02-28T06:48:49;126.40;;;49.20;;
56581;SDS011;42463;52.214;21.238;2023-02-28T06:51:15;112.00;;;46.60;;
56581;SDS011;42463;52.214;21.238;2023-02-28T06:53:41;112.70;;;46.00;;
56581;SDS011;42463;52.214;21.238;2023-02-28T06:56:07;108.60;;;43.60;;
56581;SDS011;42463;52.214;21.238;2023-02-28T06:58:33;119.30;;;47.20;;
56581;SDS011;42463;52.214;21.238;2023-02-28T07:01:00;115.00;;;45.30;;
56581;SDS011;42463;52.214;21.238;2023-02-28T07:03:26;97.30;;;42.80;;
56581;SDS011;42463;52.214;21.238;2023-02-28T07:05:50;104.20;;;42.00;;
56581;SDS011;42463;52.214;21.238;2023-02-28T07:08:15;99.10;;;40.00;;
56581;SDS011;42463;52.214;21.238;2023-02-28T07:10:39;92.80;;;39.80;;
56581;SDS011;42463;52.214;21.238;2023-02-28T07:13:04;93.10;;;36.60;;
56581;SDS011;42463;52.214;21.238;2023-02-28T07:15:31;92.30;;;40.70;;
56581;SDS011;42463;52.214;21.238;2023-02-28T07:17:55;93.70;;;37.20;;
56581;SDS011;42463;52.214;21.238;2023-02-28T07:20:20;95.10;;;38.10;;
56581;SDS011;42463;52.214;21.238;2023-02-28T07:22:45;86.00;;;35.50;;
56581;SDS011;42463;52.214;21.238;2023-02-28T07:25:13;75.30;;;33.00;;
56581;SDS011;42463;52.214;21.238;2023-02-28T07:27:38;64.40;;;28.80;;
56581;SDS011;42463;52.214;21.238;2023-02-28T07:30:03;71.10;;;31.40;;
56581;SDS011;42463;52.214;21.238;2023-02-28T07:32:29;70.70;;;30.00;;
56581;SDS011;42463;52.214;21.238;2023-02-28T07:34:54;57.70;;;26.00;;
56581;SDS011;42463;52.214;21.238;2023-02-28T07:37:19;82.30;;;36.80;;
56581;SDS011;42463;52.214;21.238;2023-02-28T07:39:44;74.10;;;32.60;;
56581;SDS011;42463;52.214;21.238;2023-02-28T07:42:09;45.10;;;21.60;;
56581;SDS011;42463;52.214;21.238;2023-02-28T07:44:34;27.60;;;13.80;;
56581;SDS011;42463;52.214;21.238;2023-02-28T07:47:02;23.40;;;12.40;;
56581;SDS011;42463;52.214;21.238;2023-02-28T07:49:27;25.10;;;12.00;;
56581;SDS011;42463;52.214;21.238;2023-02-28T07:51:51;18.70;;;10.50;;
56581;SDS011;42463;52.214;21.238;2023-02-28T07:54:16;15.30;;;7.40;;
56581;SDS011;42463;52.214;21.238;2023-02-28T07:56:41;13.80;;;7.90;;
56581;SDS011;42463;52.214;21.238;2023-02-28T07:59:05;11.90;;;6.90;;
56581;SDS011;42463;52.214;21.238;2023-02-28T08:01:31;12.20;;;7.00;;
56581;SDS011;42463;52.214;21.238;2023-02-28T08:06:19;10.60;;;5.40;;
56581;SDS011;42463;52.214;21.238;2023-02-28T08:08:45;11.80;;;6.40;;
56581;SDS011;42463;52.214;21.238;2023-02-28T08:11:11;13.40;;;7.00;;
56581;SDS011;42463;52.214;21.238;2023-02-28T08:13:36;10.80;;;6.40;;
56581;SDS011;42463;52.214;21.238;2023-02-28T08:16:01;13.50;;;6.20;;
56581;SDS011;42463;52.214;21.238;2023-02-28T08:18:27;9.80;;;5.90;;
56581;SDS011;42463;52.214;21.238;2023-02-28T08:20:52;11.70;;;6.90;;
56581;SDS011;42463;52.214;21.238;2023-02-28T08:23:18;12.10;;;7.30;;
56581;SDS011;42463;52.214;21.238;2023-02-28T08:25:43;14.90;;;8.30;;
56581;SDS011;42463;52.214;21.238;2023-02-28T08:28:09;16.70;;;8.50;;
56581;SDS011;42463;52.214;21.238;2023-02-28T08:30:33;13.70;;;9.10;;
56581;SDS011;42463;52.214;21.238;2023-02-28T08:32:58;16.90;;;8.80;;
56581;SDS011;42463;52.214;21.238;2023-02-28T08:35:25;14.60;;;8.60;;
56581;SDS011;42463;52.214;21.238;2023-02-28T08:37:50;16.50;;;8.80;;
56581;SDS011;42463;52.214;21.238;2023-02-28T08:40:15;18.60;;;8.70;;
56581;SDS011;42463;52.214;21.238;2023-02-28T08:42:41;13.80;;;8.10;;
56581;SDS011;42463;52.214;21.238;2023-02-28T08:45:07;16.10;;;8.90;;
56581;SDS011;42463;52.214;21.238;2023-02-28T08:47:32;15.20;;;8.40;;
56581;SDS011;42463;52.214;21.238;2023-02-28T08:49:57;12.70;;;8.30;;
56581;SDS011;42463;52.214;21.238;2023-02-28T08:52:22;13.90;;;8.40;;
56581;SDS011;42463;52.214;21.238;2023-02-28T08:54:46;16.30;;;8.30;;
56581;SDS011;42463;52.214;21.238;2023-02-28T08:57:11;14.70;;;8.10;;
56581;SDS011;42463;52.214;21.238;2023-02-28T08:59:35;14.60;;;7.40;;
56581;SDS011;42463;52.214;21.238;2023-02-28T09:02:00;16.60;;;9.70;;
56581;SDS011;42463;52.214;21.238;2023-02-28T09:04:24;15.00;;;9.40;;
56581;SDS011;42463;52.214;21.238;2023-02-28T09:06:52;18.50;;;9.00;;
56581;SDS011;42463;52.214;21.238;2023-02-28T09:09:17;13.00;;;8.20;;
56581;SDS011;42463;52.214;21.238;2023-02-28T09:11:41;12.60;;;7.20;;
56581;SDS011;42463;52.214;21.238;2023-02-28T09:14:06;11.80;;;7.70;;
56581;SDS011;42463;52.214;21.238;2023-02-28T09:16:30;16.80;;;8.50;;
56581;SDS011;42463;52.214;21.238;2023-02-28T09:18:56;13.90;;;8.00;;
56581;SDS011;42463;52.214;21.238;2023-02-28T09:21:21;16.10;;;8.30;;
56581;SDS011;42463;52.214;21.238;2023-02-28T09:23:46;12.80;;;8.10;;
56581;SDS011;42463;52.214;21.238;2023-02-28T09:26:16;15.70;;;8.50;;
56581;SDS011;42463;52.214;21.238;2023-02-28T09:28:41;16.40;;;9.30;;
56581;SDS011;42463;52.214;21.238;2023-02-28T09:31:06;12.50;;;7.50;;
56581;SDS011;42463;52.214;21.238;2023-02-28T09:33:35;11.40;;;7.30;;
56581;SDS011;42463;52.214;21.238;2023-02-28T09:36:00;12.90;;;7.80;;
56581;SDS011;42463;52.214;21.238;2023-02-28T09:38:26;10.90;;;7.00;;
56581;SDS011;42463;52.214;21.238;2023-02-28T09:40:53;11.70;;;7.50;;
56581;SDS011;42463;52.214;21.238;2023-02-28T09:43:20;15.50;;;9.40;;
56581;SDS011;42463;52.214;21.238;2023-02-28T09:45:50;12.60;;;7.40;;
56581;SDS011;42463;52.214;21.238;2023-02-28T09:48:20;12.70;;;7.40;;
56581;SDS011;42463;52.214;21.238;2023-02-28T09:53:15;12.40;;;8.10;;
56581;SDS011;42463;52.214;21.238;2023-02-28T09:55:47;13.70;;;7.40;;
56581;SDS011;42463;52.214;21.238;2023-02-28T09:58:16;11.10;;;6.60;;
56581;SDS011;42463;52.214;21.238;2023-02-28T10:00:46;9.20;;;5.90;;
56581;SDS011;42463;52.214;21.238;2023-02-28T10:03:27;12.40;;;7.80;;
56581;SDS011;42463;52.214;21.238;2023-02-28T10:05:58;15.40;;;8.30;;
56581;SDS011;42463;52.214;21.238;2023-02-28T10:08:29;12.50;;;7.70;;
56581;SDS011;42463;52.214;21.238;2023-02-28T10:10:57;10.00;;;5.70;;
56581;SDS011;42463;52.214;21.238;2023-02-28T10:13:26;12.50;;;6.90;;
56581;SDS011;42463;52.214;21.238;2023-02-28T10:15:56;11.90;;;7.70;;
56581;SDS011;42463;52.214;21.238;2023-02-28T10:18:26;12.00;;;7.40;;
56581;SDS011;42463;52.214;21.238;2023-02-28T10:20:53;14.60;;;8.30;;
56581;SDS011;42463;52.214;21.238;2023-02-28T10:23:21;10.10;;;7.30;;
56581;SDS011;42463;52.214;21.238;2023-02-28T10:25:50;12.20;;;7.40;;
56581;SDS011;42463;52.214;21.238;2023-02-28T10:28:20;11.20;;;6.90;;
56581;SDS011;42463;52.214;21.238;2023-02-28T10:30:48;13.40;;;8.30;;
56581;SDS011;42463;52.214;21.238;2023-02-28T10:33:22;13.20;;;7.60;;
56581;SDS011;42463;52.214;21.238;2023-02-28T10:35:48;9.10;;;6.40;;
56581;SDS011;42463;52.214;21.238;2023-02-28T10:38:16;12.10;;;7.50;;
56581;SDS011;42463;52.214;21.238;2023-02-28T10:40:43;12.40;;;6.70;;
56581;SDS011;42463;52.214;21.238;2023-02-28T10:43:17;14.40;;;8.40;;
56581;SDS011;42463;52.214;21.238;2023-02-28T10:45:54;12.60;;;7.20;;
56581;SDS011;42463;52.214;21.238;2023-02-28T10:48:28;12.00;;;7.90;;
56581;SDS011;42463;52.214;21.238;2023-02-28T10:50:55;13.60;;;8.30;;
56581;SDS011;42463;52.214;21.238;2023-02-28T10:53:28;13.00;;;7.90;;
56581;SDS011;42463;52.214;21.238;2023-02-28T10:55:59;14.20;;;7.70;;
56581;SDS011;42463;52.214;21.238;2023-02-28T10:58:26;9.60;;;6.70;;
56581;SDS011;42463;52.214;21.238;2023-02-28T11:01:03;14.50;;;8.30;;
56581;SDS011;42463;52.214;21.238;2023-02-28T11:03:35;13.10;;;8.20;;
56581;SDS011;42463;52.214;21.238;2023-02-28T11:06:04;14.00;;;7.80;;
56581;SDS011;42463;52.214;21.238;2023-02-28T11:08:30;12.40;;;8.30;;
56581;SDS011;42463;52.214;21.238;2023-02-28T11:10:57;13.40;;;8.20;;
56581;SDS011;42463;52.214;21.238;2023-02-28T11:13:26;12.80;;;7.90;;
56581;SDS011;42463;52.214;21.238;2023-02-28T11:15:56;15.00;;;8.50;;
56581;SDS011;42463;52.214;21.238;2023-02-28T11:18:24;12.30;;;7.80;;
56581;SDS011;42463;52.214;21.238;2023-02-28T11:20:53;14.00;;;8.40;;
56581;SDS011;42463;52.214;21.238;2023-02-28T11:23:21;14.50;;;8.40;;
56581;SDS011;42463;52.214;21.238;2023-02-28T11:25:51;12.10;;;9.00;;
56581;SDS011;42463;52.214;21.238;2023-02-28T11:28:26;10.40;;;6.70;;
56581;SDS011;42463;52.214;21.238;2023-02-28T11:31:00;14.70;;;9.20;;
56581;SDS011;42463;52.214;21.238;2023-02-28T11:33:28;12.80;;;7.80;;
56581;SDS011;42463;52.214;21.238;2023-02-28T11:35:54;12.80;;;8.10;;
56581;SDS011;42463;52.214;21.238;2023-02-28T11:38:23;12.50;;;7.80;;
56581;SDS011;42463;52.214;21.238;2023-02-28T11:40:51;14.00;;;8.50;;
56581;SDS011;42463;52.214;21.238;2023-02-28T11:43:30;12.30;;;8.20;;
56581;SDS011;42463;52.214;21.238;2023-02-28T11:51:17;20.00;;;9.80;;
56581;SDS011;42463;52.214;21.238;2023-02-28T11:53:57;11.20;;;8.60;;
56581;SDS011;42463;52.214;21.238;2023-02-28T11:56:39;16.30;;;9.60;;
56581;SDS011;42463;52.214;21.238;2023-02-28T11:59:14;13.80;;;9.60;;
56581;SDS011;42463;52.214;21.238;2023-02-28T12:01:58;13.80;;;9.30;;
56581;SDS011;42463;52.214;21.238;2023-02-28T12:04:33;13.20;;;8.80;;
56581;SDS011;42463;52.214;21.238;2023-02-28T12:07:11;15.30;;;9.00;;
56581;SDS011;42463;52.214;21.238;2023-02-28T12:09:46;15.90;;;10.70;;
56581;SDS011;42463;52.214;21.238;2023-02-28T12:12:26;14.70;;;10.40;;
56581;SDS011;42463;52.214;21.238;2023-02-28T12:15:02;13.10;;;9.20;;
56581;SDS011;42463;52.214;21.238;2023-02-28T12:17:41;14.40;;;9.50;;
56581;SDS011;42463;52.214;21.238;2023-02-28T12:20:21;16.00;;;10.40;;
56581;SDS011;42463;52.214;21.238;2023-02-28T12:22:58;14.30;;;9.40;;
56581;SDS011;42463;52.214;21.238;2023-02-28T12:25:38;18.10;;;10.40;;
56581;SDS011;42463;52.214;21.238;2023-02-28T12:28:13;15.70;;;11.20;;
56581;SDS011;42463;52.214;21.238;2023-02-28T12:30:42;16.60;;;11.20;;
56581;SDS011;42463;52.214;21.238;2023-02-28T12:33:14;16.80;;;10.50;;
56581;SDS011;42463;52.214;21.238;2023-02-28T12:35:43;15.00;;;9.40;;
56581;SDS011;42463;52.214;21.238;2023-02-28T12:38:14;14.90;;;10.40;;
56581;SDS011;42463;52.214;21.238;2023-02-28T12:40:43;13.90;;;10.20;;
56581;SDS011;42463;52.214;21.238;2023-02-28T12:43:12;14.70;;;10.60;;
56581;SDS011;42463;52.214;21.238;2023-02-28T12:45:41;17.50;;;11.40;;
56581;SDS011;42463;52.214;21.238;2023-02-28T12:48:11;15.40;;;11.10;;
56581;SDS011;42463;52.214;21.238;2023-02-28T12:50:44;17.00;;;11.30;;
56581;SDS011;42463;52.214;21.238;2023-02-28T12:53:11;16.80;;;11.20;;
56581;SDS011;42463;52.214;21.238;2023-02-28T12:55:44;16.70;;;11.00;;
56581;SDS011;42463;52.214;21.238;2023-02-28T12:58:14;15.90;;;11.10;;
56581;SDS011;42463;52.214;21.238;2023-02-28T13:00:48;16.30;;;11.50;;
56581;SDS011;42463;52.214;21.238;2023-02-28T13:03:34;17.40;;;10.80;;
56581;SDS011;42463;52.214;21.238;2023-02-28T13:06:19;13.30;;;9.20;;
56581;SDS011;42463;52.214;21.238;2023-02-28T13:09:02;16.80;;;10.70;;
56581;SDS011;42463;52.214;21.238;2023-02-28T13:11:32;14.10;;;10.70;;
56581;SDS011;42463;52.214;21.238;2023-02-28T13:14:03;17.70;;;11.20;;
56581;SDS011;42463;52.214;21.238;2023-02-28T13:16:29;18.40;;;11.60;;
56581;SDS011;42463;52.214;21.238;2023-02-28T13:19:18;16.20;;;10.90;;
56581;SDS011;42463;52.214;21.238;2023-02-28T13:21:45;15.40;;;10.50;;
56581;SDS011;42463;52.214;21.238;2023-02-28T13:24:13;17.60;;;12.00;;
56581;SDS011;42463;52.214;21.238;2023-02-28T13:27:17;16.40;;;11.80;;
56581;SDS011;42463;52.214;21.238;2023-02-28T13:29:54;17.10;;;11.00;;
56581;SDS011;42463;52.214;21.238;2023-02-28T13:32:27;19.90;;;12.20;;
56581;SDS011;42463;52.214;21.238;2023-02-28T13:37:37;17.60;;;12.30;;
56581;SDS011;42463;52.214;21.238;2023-02-28T13:42:58;19.20;;;11.10;;
56581;SDS011;42463;52.214;21.238;2023-02-28T13:45:24;18.80;;;11.80;;
56581;SDS011;42463;52.214;21.238;2023-02-28T13:47:59;16.20;;;10.90;;
56581;SDS011;42463;52.214;21.238;2023-02-28T13:50:29;17.60;;;11.10;;
56581;SDS011;42463;52.214;21.238;2023-02-28T13:53:01;14.90;;;10.50;;
56581;SDS011;42463;52.214;21.238;2023-02-28T13:55:53;19.70;;;13.00;;
56581;SDS011;42463;52.214;21.238;2023-02-28T13:58:35;18.30;;;12.30;;
56581;SDS011;42463;52.214;21.238;2023-02-28T14:01:15;21.90;;;12.10;;
56581;SDS011;42463;52.214;21.238;2023-02-28T14:06:53;14.80;;;9.80;;
56581;SDS011;42463;52.214;21.238;2023-02-28T14:09:21;18.50;;;11.50;;
56581;SDS011;42463;52.214;21.238;2023-02-28T14:11:51;19.50;;;11.40;;
56581;SDS011;42463;52.214;21.238;2023-02-28T14:17:14;20.90;;;10.50;;
56581;SDS011;42463;52.214;21.238;2023-02-28T14:19:40;10.80;;;7.70;;
56581;SDS011;42463;52.214;21.238;2023-02-28T14:22:13;18.90;;;10.70;;
56581;SDS011;42463;52.214;21.238;2023-02-28T14:27:40;19.30;;;11.00;;
56581;SDS011;42463;52.214;21.238;2023-02-28T14:33:14;18.40;;;11.10;;
56581;SDS011;42463;52.214;21.238;2023-02-28T14:35:55;18.50;;;10.60;;
56581;SDS011;42463;52.214;21.238;2023-02-28T14:38:27;18.90;;;11.30;;
56581;SDS011;42463;52.214;21.238;2023-02-28T14:40:56;15.80;;;10.90;;
56581;SDS011;42463;52.214;21.238;2023-02-28T14:43:25;22.30;;;11.40;;
56581;SDS011;42463;52.214;21.238;2023-02-28T14:45:51;19.10;;;10.40;;
56581;SDS011;42463;52.214;21.238;2023-02-28T14:48:20;19.40;;;10.60;;
56581;SDS011;42463;52.214;21.238;2023-02-28T14:50:49;18.50;;;11.10;;
56581;SDS011;42463;52.214;21.238;2023-02-28T14:53:17;18.60;;;11.40;;
56581;SDS011;42463;52.214;21.238;2023-02-28T14:55:46;18.90;;;10.50;;
56581;SDS011;42463;52.214;21.238;2023-02-28T14:58:19;16.70;;;10.90;;